Beasley, TX (77417)

4:00 PM CDT on April 26, 2015 (GMT -0500)
Squad One Fort Bend County EMS | | Change Station
CLOSE
Current Station
Personal Weather Station
Location: Needville, TX
Elevation: 89 ft
Nearby Weather Stations

Elev 89 ft 29.40 °N, 95.84 °W | Updated 15 seconds ago

Partly Cloudy
Partly Cloudy
83.5 °F
Feels Like 90 °F
N
8.0
Wind Variable Wind from ESE

Today
High -- | Low -- °F
--% Chance of Precip.
Yesterday
High -- | Low -- °F
Precip. -- in
6:46 AM 7:57 PM
First Quarter, 58% visible
Pressure 29.64 in
Visibility 10.0 miles
Clouds Clear
Heat Index 90 °F
Dew Point 74 °F
Humidity 72%
Rainfall -999.00 in
Snow Depth Not available.
UV 8 out of 12
Pollen 7.50 out of 12
Air Quality Not available.
Flu Activity Local Activity
METAR KARM 262055Z AUTO 11011KT 10SM CLR 29/22 A2964 RMK AO2 T02930219

More Conditions Fewer Conditions

Pressure 29.64 in
Visibility 10.0 miles
Clouds Clear
Heat Index 90 °F
Dew Point 74 °F
Humidity 72%
Rainfall -999.00 in
Snow Depth Not available.
UV 8 out of 12
Pollen 7.50 out of 12
Air Quality Not available.
Flu Activity Local Activity
METAR KARM 262055Z AUTO 11011KT 10SM CLR 29/22 A2964 RMK AO2 T02930219

More Conditions Fewer Conditions

The full scope of the disaster following a powerful 7.8-magnitude earthquake in Nepal may not come into view for days, but global charities are already sending emergency aid. Click to see how you can help.

10-Day Weather Forecast

Almanac

Astronomy

Apr. 26, 2015 Rise Set
Actual Time
Civil Twilight
Nautical Twilight
Astronomical Twilight
Moon
Length of Visible Light
Length of Day
Tomorrow will be .
, % of the Moon is Illuminated

Today's Extremes

State Highs State Lows

Community

WunderPhotos

Upload Photos

1,817,123 photos uploaded!

WunderBlogs® & News

Nearby

Air Quality

  Air Quality AQ Index Pollutant
Not available.

Snow Depth

Station Depth Elevation

Earthquake Activity

City Distance Mag. Time & Date
Minimum magnitude displayed is 2.5.

Coastal Water Temperatures

Place Temperature

Stations

Nearby Weather Stations

Station Location Temp. Windchill Dew Point Humidity Wind Precip. Elev Updated Type